sensor_id;sensor_type;location;lat;lon;timestamp;pressure;altitude;pressure_sealevel;temperature;humidity
63343;BME280;49465;57.664;39.686;2023-05-02T00:01:49;100779.34;;;6.44;55.14
63343;BME280;49465;57.664;39.686;2023-05-02T00:04:23;100775.16;;;6.40;55.95
63343;BME280;49465;57.664;39.686;2023-05-02T00:06:56;100788.28;;;6.37;55.26
63343;BME280;49465;57.664;39.686;2023-05-02T00:09:28;100784.00;;;6.36;55.10
63343;BME280;49465;57.664;39.686;2023-05-02T00:12:01;100782.88;;;6.19;55.24
63343;BME280;49465;57.664;39.686;2023-05-02T00:14:27;100783.13;;;6.13;55.60
63343;BME280;49465;57.664;39.686;2023-05-02T00:17:00;100789.75;;;6.22;55.71
63343;BME280;49465;57.664;39.686;2023-05-02T00:19:27;100786.94;;;6.04;55.04
63343;BME280;49465;57.664;39.686;2023-05-02T00:21:55;100786.16;;;6.02;55.45
63343;BME280;49465;57.664;39.686;2023-05-02T00:24:22;100788.00;;;5.99;55.46
63343;BME280;49465;57.664;39.686;2023-05-02T00:26:51;100790.66;;;5.97;55.72
63343;BME280;49465;57.664;39.686;2023-05-02T00:29:21;100792.50;;;5.93;55.36
63343;BME280;49465;57.664;39.686;2023-05-02T00:31:47;100804.75;;;5.90;55.82
63343;BME280;49465;57.664;39.686;2023-05-02T00:34:16;100797.63;;;5.97;55.73
63343;BME280;49465;57.664;39.686;2023-05-02T00:36:43;100796.25;;;5.86;55.93
63343;BME280;49465;57.664;39.686;2023-05-02T00:39:12;100805.91;;;5.83;55.10
63343;BME280;49465;57.664;39.686;2023-05-02T00:41:44;100809.41;;;5.82;55.41
63343;BME280;49465;57.664;39.686;2023-05-02T00:44:13;100815.59;;;5.79;55.08
63343;BME280;49465;57.664;39.686;2023-05-02T00:46:48;100811.34;;;5.77;55.54
63343;BME280;49465;57.664;39.686;2023-05-02T00:49:18;100819.19;;;5.75;56.12
63343;BME280;49465;57.664;39.686;2023-05-02T00:51:47;100823.28;;;5.82;55.95
63343;BME280;49465;57.664;39.686;2023-05-02T00:54:16;100821.22;;;5.67;55.51
63343;BME280;49465;57.664;39.686;2023-05-02T00:56:48;100828.69;;;5.76;56.14
63343;BME280;49465;57.664;39.686;2023-05-02T00:59:18;100829.25;;;5.61;55.10
63343;BME280;49465;57.664;39.686;2023-05-02T01:05:16;100842.44;;;5.80;54.93
63343;BME280;49465;57.664;39.686;2023-05-02T01:10:41;100846.03;;;5.77;55.09
63343;BME280;49465;57.664;39.686;2023-05-02T01:13:23;100856.59;;;5.72;54.98
63343;BME280;49465;57.664;39.686;2023-05-02T01:15:56;100854.78;;;5.49;55.85
63343;BME280;49465;57.664;39.686;2023-05-02T01:18:31;100865.25;;;5.48;55.34
63343;BME280;49465;57.664;39.686;2023-05-02T01:21:06;100876.53;;;5.47;56.40
63343;BME280;49465;57.664;39.686;2023-05-02T01:24:04;100860.94;;;5.72;55.29
63343;BME280;49465;57.664;39.686;2023-05-02T01:29:16;100871.13;;;5.28;55.09
63343;BME280;49465;57.664;39.686;2023-05-02T01:31:47;100869.31;;;5.30;55.60
63343;BME280;49465;57.664;39.686;2023-05-02T01:34:22;100875.31;;;5.32;55.55
63343;BME280;49465;57.664;39.686;2023-05-02T01:36:53;100889.34;;;5.26;55.44
63343;BME280;49465;57.664;39.686;2023-05-02T01:39:23;100885.50;;;5.11;56.59
63343;BME280;49465;57.664;39.686;2023-05-02T01:41:53;100896.84;;;5.09;56.25
63343;BME280;49465;57.664;39.686;2023-05-02T01:44:32;100903.78;;;5.35;56.12
63343;BME280;49465;57.664;39.686;2023-05-02T01:47:04;100901.25;;;5.07;57.26
63343;BME280;49465;57.664;39.686;2023-05-02T01:49:36;100904.25;;;4.94;56.78
63343;BME280;49465;57.664;39.686;2023-05-02T01:52:07;100911.84;;;5.01;57.05
63343;BME280;49465;57.664;39.686;2023-05-02T01:54:50;100926.72;;;4.95;57.21
63343;BME280;49465;57.664;39.686;2023-05-02T01:57:26;100920.75;;;4.92;57.17
63343;BME280;49465;57.664;39.686;2023-05-02T02:00:02;100928.88;;;4.83;57.36
63343;BME280;49465;57.664;39.686;2023-05-02T02:02:33;100929.97;;;4.74;57.35
63343;BME280;49465;57.664;39.686;2023-05-02T02:05:12;100930.84;;;4.74;57.97
63343;BME280;49465;57.664;39.686;2023-05-02T02:07:42;100936.19;;;4.68;57.92
63343;BME280;49465;57.664;39.686;2023-05-02T02:10:20;100941.06;;;4.81;58.26
63343;BME280;49465;57.664;39.686;2023-05-02T02:12:56;100943.41;;;4.59;58.47
63343;BME280;49465;57.664;39.686;2023-05-02T02:15:38;100950.31;;;4.60;58.75
63343;BME280;49465;57.664;39.686;2023-05-02T02:18:20;100954.78;;;4.54;59.06
63343;BME280;49465;57.664;39.686;2023-05-02T02:20:56;100961.31;;;4.38;59.28
63343;BME280;49465;57.664;39.686;2023-05-02T02:23:31;100960.59;;;4.33;58.88
63343;BME280;49465;57.664;39.686;2023-05-02T02:26:05;100966.31;;;4.13;58.17
63343;BME280;49465;57.664;39.686;2023-05-02T02:28:37;100967.78;;;4.23;58.66
63343;BME280;49465;57.664;39.686;2023-05-02T02:31:07;100969.53;;;4.23;59.32
63343;BME280;49465;57.664;39.686;2023-05-02T02:33:36;100971.25;;;4.24;59.99
63343;BME280;49465;57.664;39.686;2023-05-02T02:36:23;100977.53;;;4.46;59.45
63343;BME280;49465;57.664;39.686;2023-05-02T02:39:09;100989.47;;;4.53;58.73
63343;BME280;49465;57.664;39.686;2023-05-02T02:53:38;100988.69;;;4.50;58.57
63343;BME280;49465;57.664;39.686;2023-05-02T02:56:22;100987.75;;;4.52;58.38
63343;BME280;49465;57.664;39.686;2023-05-02T02:59:05;100994.91;;;4.44;59.38
63343;BME280;49465;57.664;39.686;2023-05-02T03:01:40;100993.41;;;4.35;57.95
63343;BME280;49465;57.664;39.686;2023-05-02T03:04:15;101003.50;;;4.46;58.62
63343;BME280;49465;57.664;39.686;2023-05-02T03:06:44;101007.41;;;4.30;59.00
63343;BME280;49465;57.664;39.686;2023-05-02T03:09:16;101011.88;;;4.56;59.30
63343;BME280;49465;57.664;39.686;2023-05-02T03:11:52;101012.41;;;4.69;58.86
63343;BME280;49465;57.664;39.686;2023-05-02T03:14:21;101020.59;;;4.55;58.03
63343;BME280;49465;57.664;39.686;2023-05-02T03:16:48;101017.41;;;4.45;58.22
63343;BME280;49465;57.664;39.686;2023-05-02T03:19:15;101018.25;;;4.46;58.62
63343;BME280;49465;57.664;39.686;2023-05-02T03:21:42;101032.06;;;4.46;58.51
63343;BME280;49465;57.664;39.686;2023-05-02T03:24:08;101032.81;;;4.51;59.40
63343;BME280;49465;57.664;39.686;2023-05-02T03:26:37;101041.31;;;4.56;58.50
63343;BME280;49465;57.664;39.686;2023-05-02T03:29:09;101041.78;;;4.71;58.67
63343;BME280;49465;57.664;39.686;2023-05-02T03:31:38;101054.16;;;4.63;58.68
63343;BME280;49465;57.664;39.686;2023-05-02T03:34:04;101050.59;;;4.65;59.46
63343;BME280;49465;57.664;39.686;2023-05-02T03:36:31;101057.63;;;4.62;58.88
63343;BME280;49465;57.664;39.686;2023-05-02T03:38:57;101050.44;;;4.71;58.81
63343;BME280;49465;57.664;39.686;2023-05-02T03:41:24;101059.88;;;4.74;60.34
63343;BME280;49465;57.664;39.686;2023-05-02T03:43:51;101060.53;;;4.82;59.54
63343;BME280;49465;57.664;39.686;2023-05-02T03:46:17;101053.47;;;4.86;59.15
63343;BME280;49465;57.664;39.686;2023-05-02T03:48:43;101062.59;;;5.01;59.45
63343;BME280;49465;57.664;39.686;2023-05-02T03:51:11;101064.88;;;5.11;59.41
63343;BME280;49465;57.664;39.686;2023-05-02T03:53:38;101072.28;;;5.25;59.26
63343;BME280;49465;57.664;39.686;2023-05-02T03:56:06;101077.75;;;5.44;58.79
63343;BME280;49465;57.664;39.686;2023-05-02T03:58:36;101088.50;;;5.62;58.98
63343;BME280;49465;57.664;39.686;2023-05-02T04:01:07;101082.53;;;5.58;58.36
63343;BME280;49465;57.664;39.686;2023-05-02T04:03:38;101078.50;;;5.76;58.50
63343;BME280;49465;57.664;39.686;2023-05-02T04:06:07;101082.13;;;6.00;58.06
63343;BME280;49465;57.664;39.686;2023-05-02T04:08:34;101085.41;;;6.05;57.89
63343;BME280;49465;57.664;39.686;2023-05-02T04:11:00;101076.22;;;6.22;58.24
63343;BME280;49465;57.664;39.686;2023-05-02T04:13:27;101087.75;;;6.40;57.95
63343;BME280;49465;57.664;39.686;2023-05-02T04:15:54;101090.44;;;6.62;57.57
63343;BME280;49465;57.664;39.686;2023-05-02T04:18:23;101085.66;;;6.75;57.14
63343;BME280;49465;57.664;39.686;2023-05-02T04:20:50;101093.88;;;6.87;56.94
63343;BME280;49465;57.664;39.686;2023-05-02T04:23:17;101094.84;;;7.08;56.59
63343;BME280;49465;57.664;39.686;2023-05-02T04:25:53;101107.06;;;7.53;56.08
63343;BME280;49465;57.664;39.686;2023-05-02T04:28:30;101100.22;;;7.73;56.07
63343;BME280;49465;57.664;39.686;2023-05-02T04:30:59;101099.97;;;7.79;55.94
63343;BME280;49465;57.664;39.686;2023-05-02T04:33:28;101093.56;;;7.88;55.70
63343;BME280;49465;57.664;39.686;2023-05-02T04:35:55;101095.34;;;8.08;56.00
63343;BME280;49465;57.664;39.686;2023-05-02T04:38:21;101101.81;;;8.20;56.48
63343;BME280;49465;57.664;39.686;2023-05-02T04:40:50;101106.19;;;8.41;55.95
63343;BME280;49465;57.664;39.686;2023-05-02T04:43:19;101099.94;;;8.64;54.73
63343;BME280;49465;57.664;39.686;2023-05-02T04:45:49;101104.06;;;8.90;54.10
63343;BME280;49465;57.664;39.686;2023-05-02T04:48:16;101102.16;;;9.13;53.97
63343;BME280;49465;57.664;39.686;2023-05-02T04:50:46;101111.09;;;9.28;54.02
63343;BME280;49465;57.664;39.686;2023-05-02T04:53:13;101112.66;;;9.51;53.39
63343;BME280;49465;57.664;39.686;2023-05-02T04:55:39;101114.97;;;9.76;52.28
63343;BME280;49465;57.664;39.686;2023-05-02T04:58:05;101116.53;;;9.98;52.14
63343;BME280;49465;57.664;39.686;2023-05-02T05:00:38;101114.00;;;10.14;53.20
63343;BME280;49465;57.664;39.686;2023-05-02T05:03:04;101126.06;;;10.35;51.77
63343;BME280;49465;57.664;39.686;2023-05-02T05:05:33;101122.38;;;10.57;52.49
63343;BME280;49465;57.664;39.686;2023-05-02T05:08:00;101121.94;;;10.82;50.83
63343;BME280;49465;57.664;39.686;2023-05-02T05:10:26;101121.22;;;10.96;51.48
63343;BME280;49465;57.664;39.686;2023-05-02T05:12:55;101132.63;;;11.28;51.25
63343;BME280;49465;57.664;39.686;2023-05-02T05:15:22;101126.47;;;11.45;51.09
63343;BME280;49465;57.664;39.686;2023-05-02T05:17:50;101121.63;;;11.69;50.59
63343;BME280;49465;57.664;39.686;2023-05-02T05:20:17;101131.97;;;11.88;50.12
63343;BME280;49465;57.664;39.686;2023-05-02T05:22:46;101123.53;;;12.13;50.65
63343;BME280;49465;57.664;39.686;2023-05-02T05:25:13;101122.03;;;12.39;49.68
63343;BME280;49465;57.664;39.686;2023-05-02T05:27:40;101120.94;;;12.58;48.43
63343;BME280;49465;57.664;39.686;2023-05-02T05:30:07;101128.28;;;12.81;48.72
63343;BME280;49465;57.664;39.686;2023-05-02T05:32:34;101123.44;;;13.04;47.70
63343;BME280;49465;57.664;39.686;2023-05-02T05:35:03;101120.22;;;13.28;48.20
63343;BME280;49465;57.664;39.686;2023-05-02T05:37:32;101131.97;;;13.51;48.33
63343;BME280;49465;57.664;39.686;2023-05-02T05:40:10;101127.56;;;13.78;47.64
63343;BME280;49465;57.664;39.686;2023-05-02T05:42:37;101127.09;;;13.99;46.38
63343;BME280;49465;57.664;39.686;2023-05-02T05:45:03;101123.38;;;14.29;46.39
63343;BME280;49465;57.664;39.686;2023-05-02T05:47:30;101123.97;;;14.47;45.01
63343;BME280;49465;57.664;39.686;2023-05-02T05:49:56;101131.50;;;14.66;45.48
63343;BME280;49465;57.664;39.686;2023-05-02T05:52:22;101124.31;;;14.93;45.50
63343;BME280;49465;57.664;39.686;2023-05-02T05:54:52;101126.63;;;15.11;45.17
63343;BME280;49465;57.664;39.686;2023-05-02T05:57:18;101126.72;;;15.35;43.55
63343;BME280;49465;57.664;39.686;2023-05-02T05:59:47;101129.44;;;15.70;44.33
63343;BME280;49465;57.664;39.686;2023-05-02T06:02:16;101130.50;;;15.80;43.41
63343;BME280;49465;57.664;39.686;2023-05-02T06:04:42;101133.38;;;16.01;42.14
63343;BME280;49465;57.664;39.686;2023-05-02T06:07:12;101134.84;;;16.17;42.68
63343;BME280;49465;57.664;39.686;2023-05-02T06:09:38;101139.88;;;16.33;41.31
63343;BME280;49465;57.664;39.686;2023-05-02T06:12:07;101133.28;;;16.50;40.93
63343;BME280;49465;57.664;39.686;2023-05-02T06:14:36;101145.34;;;16.65;40.80
63343;BME280;49465;57.664;39.686;2023-05-02T06:17:03;101134.78;;;16.76;41.10
63343;BME280;49465;57.664;39.686;2023-05-02T06:19:32;101137.63;;;16.97;41.62
63343;BME280;49465;57.664;39.686;2023-05-02T06:22:01;101145.56;;;17.31;41.15
63343;BME280;49465;57.664;39.686;2023-05-02T06:24:30;101143.13;;;17.51;39.45
63343;BME280;49465;57.664;39.686;2023-05-02T06:27:00;101131.13;;;17.68;40.13
63343;BME280;49465;57.664;39.686;2023-05-02T06:29:29;101139.78;;;17.92;39.91
63343;BME280;49465;57.664;39.686;2023-05-02T06:31:56;101145.50;;;18.09;40.08
63343;BME280;49465;57.664;39.686;2023-05-02T06:34:24;101139.59;;;18.37;39.37
63343;BME280;49465;57.664;39.686;2023-05-02T06:36:54;101140.69;;;18.56;39.94
63343;BME280;49465;57.664;39.686;2023-05-02T06:39:24;101139.38;;;18.71;39.15
63343;BME280;49465;57.664;39.686;2023-05-02T06:41:50;101143.00;;;18.91;38.81
63343;BME280;49465;57.664;39.686;2023-05-02T06:44:17;101139.19;;;19.05;37.39
63343;BME280;49465;57.664;39.686;2023-05-02T06:46:49;101144.44;;;19.26;36.47
63343;BME280;49465;57.664;39.686;2023-05-02T06:49:15;101144.09;;;19.50;38.15
63343;BME280;49465;57.664;39.686;2023-05-02T06:51:44;101151.41;;;19.68;36.15
63343;BME280;49465;57.664;39.686;2023-05-02T06:54:10;101139.41;;;19.73;36.94
63343;BME280;49465;57.664;39.686;2023-05-02T06:56:39;101146.56;;;20.02;36.39
63343;BME280;49465;57.664;39.686;2023-05-02T06:59:05;101146.44;;;19.94;34.59
63343;BME280;49465;57.664;39.686;2023-05-02T07:01:34;101142.53;;;20.18;36.73
63343;BME280;49465;57.664;39.686;2023-05-02T07:04:13;101137.75;;;20.21;33.28
63343;BME280;49465;57.664;39.686;2023-05-02T07:06:48;101143.59;;;20.64;34.46
63343;BME280;49465;57.664;39.686;2023-05-02T07:09:23;101139.25;;;20.53;32.52
63343;BME280;49465;57.664;39.686;2023-05-02T07:11:54;101143.44;;;20.75;33.01
63343;BME280;49465;57.664;39.686;2023-05-02T07:14:25;101146.66;;;20.79;33.32
63343;BME280;49465;57.664;39.686;2023-05-02T07:16:55;101151.69;;;20.91;34.07
63343;BME280;49465;57.664;39.686;2023-05-02T07:19:24;101148.09;;;21.10;31.42
63343;BME280;49465;57.664;39.686;2023-05-02T07:21:59;101144.91;;;21.35;33.37
63343;BME280;49465;57.664;39.686;2023-05-02T07:24:26;101141.44;;;21.24;31.54
63343;BME280;49465;57.664;39.686;2023-05-02T07:26:52;101143.91;;;21.36;31.88
63343;BME280;49465;57.664;39.686;2023-05-02T07:29:21;101147.09;;;21.49;32.37
63343;BME280;49465;57.664;39.686;2023-05-02T07:31:48;101142.09;;;21.64;30.71
63343;BME280;49465;57.664;39.686;2023-05-02T07:34:14;101137.97;;;21.69;30.23
63343;BME280;49465;57.664;39.686;2023-05-02T07:36:41;101132.56;;;21.79;30.22
63343;BME280;49465;57.664;39.686;2023-05-02T07:39:07;101136.47;;;21.85;29.45
63343;BME280;49465;57.664;39.686;2023-05-02T07:41:34;101138.84;;;21.88;31.01
63343;BME280;49465;57.664;39.686;2023-05-02T07:44:00;101145.56;;;21.92;30.28
63343;BME280;49465;57.664;39.686;2023-05-02T07:46:27;101142.50;;;21.87;30.83
63343;BME280;49465;57.664;39.686;2023-05-02T07:48:56;101144.94;;;21.80;29.48
63343;BME280;49465;57.664;39.686;2023-05-02T07:51:22;101142.88;;;21.92;29.07
63343;BME280;49465;57.664;39.686;2023-05-02T07:53:54;101146.03;;;22.05;30.43
63343;BME280;49465;57.664;39.686;2023-05-02T07:56:27;101144.09;;;22.16;28.44
63343;BME280;49465;57.664;39.686;2023-05-02T07:58:56;101146.94;;;22.32;29.63
63343;BME280;49465;57.664;39.686;2023-05-02T08:01:22;101140.97;;;22.38;27.19
63343;BME280;49465;57.664;39.686;2023-05-02T08:03:49;101141.94;;;22.55;29.27
63343;BME280;49465;57.664;39.686;2023-05-02T08:06:15;101142.13;;;22.62;28.29
63343;BME280;49465;57.664;39.686;2023-05-02T08:08:44;101135.56;;;22.74;28.71
63343;BME280;49465;57.664;39.686;2023-05-02T08:11:13;101137.44;;;22.82;28.33
63343;BME280;49465;57.664;39.686;2023-05-02T08:13:39;101140.34;;;22.97;29.23
63343;BME280;49465;57.664;39.686;2023-05-02T08:16:08;101138.25;;;23.08;27.81
63343;BME280;49465;57.664;39.686;2023-05-02T08:18:40;101148.50;;;23.13;29.29
63343;BME280;49465;57.664;39.686;2023-05-02T08:21:09;101145.97;;;23.12;29.00
63343;BME280;49465;57.664;39.686;2023-05-02T08:23:44;101143.03;;;23.31;28.95
63343;BME280;49465;57.664;39.686;2023-05-02T08:26:14;101141.91;;;23.42;29.04
63343;BME280;49465;57.664;39.686;2023-05-02T08:28:43;101145.09;;;23.45;27.42
63343;BME280;49465;57.664;39.686;2023-05-02T08:31:10;101142.28;;;23.63;26.68
63343;BME280;49465;57.664;39.686;2023-05-02T08:33:36;101137.81;;;23.72;28.00
63343;BME280;49465;57.664;39.686;2023-05-02T08:36:10;101147.44;;;24.07;27.52
63343;BME280;49465;57.664;39.686;2023-05-02T08:38:44;101147.44;;;24.16;26.80
63343;BME280;49465;57.664;39.686;2023-05-02T08:41:17;101145.09;;;24.21;27.24
63343;BME280;49465;57.664;39.686;2023-05-02T08:43:46;101151.63;;;24.35;26.51
63343;BME280;49465;57.664;39.686;2023-05-02T08:46:14;101146.41;;;24.41;25.78
63343;BME280;49465;57.664;39.686;2023-05-02T08:48:45;101144.09;;;24.55;26.22
63343;BME280;49465;57.664;39.686;2023-05-02T08:51:16;101141.72;;;24.60;25.96
63343;BME280;49465;57.664;39.686;2023-05-02T08:53:46;101139.72;;;24.70;27.10
63343;BME280;49465;57.664;39.686;2023-05-02T08:56:16;101142.19;;;24.88;26.78
63343;BME280;49465;57.664;39.686;2023-05-02T08:58:43;101134.28;;;24.95;26.41
63343;BME280;49465;57.664;39.686;2023-05-02T09:01:15;101140.97;;;24.99;25.65
63343;BME280;49465;57.664;39.686;2023-05-02T09:03:44;101137.38;;;25.15;27.29
63343;BME280;49465;57.664;39.686;2023-05-02T09:06:21;101139.38;;;25.21;26.15
63343;BME280;49465;57.664;39.686;2023-05-02T09:08:53;101139.88;;;25.16;26.77
63343;BME280;49465;57.664;39.686;2023-05-02T09:11:23;101147.69;;;24.95;25.55
63343;BME280;49465;57.664;39.686;2023-05-02T09:13:59;101147.84;;;25.01;26.55
63343;BME280;49465;57.664;39.686;2023-05-02T09:16:37;101138.56;;;25.12;26.62
63343;BME280;49465;57.664;39.686;2023-05-02T09:19:05;101142.47;;;25.01;26.30
63343;BME280;49465;57.664;39.686;2023-05-02T09:21:41;101134.72;;;25.06;25.82
63343;BME280;49465;57.664;39.686;2023-05-02T09:24:24;101129.25;;;25.39;26.59
63343;BME280;49465;57.664;39.686;2023-05-02T09:27:02;101128.69;;;25.52;26.29
63343;BME280;49465;57.664;39.686;2023-05-02T09:29:31;101124.66;;;25.56;25.85
63343;BME280;49465;57.664;39.686;2023-05-02T09:32:06;101137.84;;;25.35;24.95
63343;BME280;49465;57.664;39.686;2023-05-02T09:34:35;101126.75;;;25.38;24.52
63343;BME280;49465;57.664;39.686;2023-05-02T09:37:33;101124.66;;;25.56;26.41
63343;BME280;49465;57.664;39.686;2023-05-02T09:40:10;101114.97;;;25.47;26.01
63343;BME280;49465;57.664;39.686;2023-05-02T09:42:36;101118.69;;;25.38;24.47
63343;BME280;49465;57.664;39.686;2023-05-02T09:45:06;101115.63;;;25.49;24.71
63343;BME280;49465;57.664;39.686;2023-05-02T09:47:36;101111.00;;;25.35;23.66
63343;BME280;49465;57.664;39.686;2023-05-02T09:50:05;101118.41;;;25.33;23.87
63343;BME280;49465;57.664;39.686;2023-05-02T09:52:34;101109.81;;;25.37;24.45
63343;BME280;49465;57.664;39.686;2023-05-02T09:55:20;101107.69;;;25.79;25.22
63343;BME280;49465;57.664;39.686;2023-05-02T09:57:49;101111.56;;;25.53;24.73
63343;BME280;49465;57.664;39.686;2023-05-02T10:00:16;101116.06;;;25.21;24.16
63343;BME280;49465;57.664;39.686;2023-05-02T10:02:51;101114.47;;;25.04;24.38
63343;BME280;49465;57.664;39.686;2023-05-02T10:05:21;101110.84;;;24.80;22.91
63343;BME280;49465;57.664;39.686;2023-05-02T10:07:50;101107.22;;;24.65;23.06
63343;BME280;49465;57.664;39.686;2023-05-02T10:10:20;101103.53;;;24.58;23.82
63343;BME280;49465;57.664;39.686;2023-05-02T10:12:53;101102.53;;;24.42;24.21
63343;BME280;49465;57.664;39.686;2023-05-02T10:15:28;101106.91;;;24.35;23.72
63343;BME280;49465;57.664;39.686;2023-05-02T10:18:05;101097.50;;;24.39;22.23
63343;BME280;49465;57.664;39.686;2023-05-02T10:20:37;101101.50;;;24.68;24.23
63343;BME280;49465;57.664;39.686;2023-05-02T10:23:11;101102.97;;;24.79;24.29
63343;BME280;49465;57.664;39.686;2023-05-02T10:25:38;101096.16;;;24.68;23.29
63343;BME280;49465;57.664;39.686;2023-05-02T10:28:10;101103.88;;;24.55;23.56
63343;BME280;49465;57.664;39.686;2023-05-02T10:30:48;101097.00;;;24.60;22.77
63343;BME280;49465;57.664;39.686;2023-05-02T10:33:20;101094.16;;;24.45;23.59
63343;BME280;49465;57.664;39.686;2023-05-02T10:35:49;101086.81;;;24.23;23.14
63343;BME280;49465;57.664;39.686;2023-05-02T10:38:21;101092.50;;;24.28;23.27
63343;BME280;49465;57.664;39.686;2023-05-02T10:40:57;101093.53;;;24.19;23.60
63343;BME280;49465;57.664;39.686;2023-05-02T10:43:35;101092.84;;;24.08;22.15
63343;BME280;49465;57.664;39.686;2023-05-02T10:46:30;101084.75;;;24.50;24.49
63343;BME280;49465;57.664;39.686;2023-05-02T10:49:16;101080.72;;;24.70;20.50
63343;BME280;49465;57.664;39.686;2023-05-02T10:51:45;101084.44;;;24.61;22.19
63343;BME280;49465;57.664;39.686;2023-05-02T10:59:38;101081.25;;;25.05;23.75
63343;BME280;49465;57.664;39.686;2023-05-02T11:07:34;101074.25;;;24.96;23.08
63343;BME280;49465;57.664;39.686;2023-05-02T11:12:55;101076.06;;;25.03;22.29
63343;BME280;49465;57.664;39.686;2023-05-02T11:20:41;101061.44;;;25.45;23.55
63343;BME280;49465;57.664;39.686;2023-05-02T11:25:59;101054.13;;;25.85;23.52
63343;BME280;49465;57.664;39.686;2023-05-02T11:28:40;101064.41;;;26.05;23.76
63343;BME280;49465;57.664;39.686;2023-05-02T11:33:58;101061.31;;;26.08;23.03
63343;BME280;49465;57.664;39.686;2023-05-02T11:36:35;101050.78;;;26.36;23.44
63343;BME280;49465;57.664;39.686;2023-05-02T11:39:02;101049.75;;;26.22;21.81
63343;BME280;49465;57.664;39.686;2023-05-02T11:41:42;101035.25;;;26.61;22.87
63343;BME280;49465;57.664;39.686;2023-05-02T11:44:12;101041.16;;;26.57;22.94
63343;BME280;49465;57.664;39.686;2023-05-02T11:46:39;101034.09;;;26.56;22.93
63343;BME280;49465;57.664;39.686;2023-05-02T11:49:11;101028.75;;;26.71;22.29
63343;BME280;49465;57.664;39.686;2023-05-02T11:51:50;101017.78;;;26.87;22.04
63343;BME280;49465;57.664;39.686;2023-05-02T11:54:22;101020.22;;;26.82;22.00
63343;BME280;49465;57.664;39.686;2023-05-02T11:56:54;101021.53;;;26.86;22.55
63343;BME280;49465;57.664;39.686;2023-05-02T11:59:26;101029.13;;;26.82;22.68
63343;BME280;49465;57.664;39.686;2023-05-02T12:02:00;101027.50;;;27.03;22.19
63343;BME280;49465;57.664;39.686;2023-05-02T12:04:32;101021.16;;;27.11;20.13
63343;BME280;49465;57.664;39.686;2023-05-02T12:07:07;101010.41;;;27.11;20.85
63343;BME280;49465;57.664;39.686;2023-05-02T12:09:50;101017.91;;;27.52;22.59
63343;BME280;49465;57.664;39.686;2023-05-02T12:12:23;101014.31;;;27.45;22.55
63343;BME280;49465;57.664;39.686;2023-05-02T12:14:50;101015.78;;;27.26;21.81
63343;BME280;49465;57.664;39.686;2023-05-02T12:17:19;101018.53;;;27.32;21.96
63343;BME280;49465;57.664;39.686;2023-05-02T12:19:53;101015.00;;;27.53;21.26
63343;BME280;49465;57.664;39.686;2023-05-02T12:22:23;101008.34;;;27.49;22.46
63343;BME280;49465;57.664;39.686;2023-05-02T12:24:52;101013.88;;;27.63;22.32
63343;BME280;49465;57.664;39.686;2023-05-02T12:27:22;101005.97;;;27.61;21.89
63343;BME280;49465;57.664;39.686;2023-05-02T12:29:53;101001.16;;;27.78;21.52
63343;BME280;49465;57.664;39.686;2023-05-02T12:32:33;101003.72;;;28.14;22.65
63343;BME280;49465;57.664;39.686;2023-05-02T12:35:02;100999.28;;;28.00;20.83
63343;BME280;49465;57.664;39.686;2023-05-02T12:37:33;100986.69;;;28.07;20.70
63343;BME280;49465;57.664;39.686;2023-05-02T12:40:13;100989.88;;;28.24;21.13
63343;BME280;49465;57.664;39.686;2023-05-02T12:42:40;100986.16;;;28.25;20.24
63343;BME280;49465;57.664;39.686;2023-05-02T12:45:27;100988.88;;;28.67;22.45
63343;BME280;49465;57.664;39.686;2023-05-02T12:47:58;100979.81;;;28.39;21.83
63343;BME280;49465;57.664;39.686;2023-05-02T12:50:47;100989.97;;;28.72;21.75
63343;BME280;49465;57.664;39.686;2023-05-02T12:56:07;100987.47;;;28.77;20.93
63343;BME280;49465;57.664;39.686;2023-05-02T12:58:51;100979.69;;;29.09;22.60
63343;BME280;49465;57.664;39.686;2023-05-02T13:01:18;100977.34;;;28.86;21.32
63343;BME280;49465;57.664;39.686;2023-05-02T13:03:50;100972.41;;;29.03;20.86
63343;BME280;49465;57.664;39.686;2023-05-02T13:06:23;100973.31;;;29.17;20.50
63343;BME280;49465;57.664;39.686;2023-05-02T13:08:55;100972.88;;;29.13;20.49
63343;BME280;49465;57.664;39.686;2023-05-02T13:11:27;100976.22;;;29.29;20.62
63343;BME280;49465;57.664;39.686;2023-05-02T13:13:54;100974.75;;;29.26;20.67
63343;BME280;49465;57.664;39.686;2023-05-02T13:16:24;100975.59;;;29.40;19.35
63343;BME280;49465;57.664;39.686;2023-05-02T13:18:51;100965.00;;;29.32;19.53
63343;BME280;49465;57.664;39.686;2023-05-02T13:21:25;100970.84;;;29.49;20.93
63343;BME280;49465;57.664;39.686;2023-05-02T13:23:51;100972.06;;;29.40;19.92
63343;BME280;49465;57.664;39.686;2023-05-02T13:26:22;100982.06;;;29.39;19.45
63343;BME280;49465;57.664;39.686;2023-05-02T13:28:54;100972.47;;;29.50;19.86
63343;BME280;49465;57.664;39.686;2023-05-02T13:31:27;100973.94;;;29.66;20.96
63343;BME280;49465;57.664;39.686;2023-05-02T13:33:59;100963.16;;;29.59;20.31
63343;BME280;49465;57.664;39.686;2023-05-02T13:36:28;100958.78;;;29.65;19.79
63343;BME280;49465;57.664;39.686;2023-05-02T13:39:01;100969.19;;;29.74;20.39
63343;BME280;49465;57.664;39.686;2023-05-02T13:41:30;100960.03;;;29.69;20.17
63343;BME280;49465;57.664;39.686;2023-05-02T13:44:07;100961.69;;;29.83;20.45
63343;BME280;49465;57.664;39.686;2023-05-02T13:46:34;100952.16;;;29.74;19.45
63343;BME280;49465;57.664;39.686;2023-05-02T13:49:03;100949.88;;;29.77;19.24
63343;BME280;49465;57.664;39.686;2023-05-02T13:51:36;100949.03;;;29.77;19.44